sensor_id;sensor_type;location;lat;lon;timestamp;P1;durP1;ratioP1;P2;durP2;ratioP2
20623;SDS011;10471;42.736;23.346;2023-06-22T00:01:57;16.03;;;12.93;;
20623;SDS011;10471;42.736;23.346;2023-06-22T00:04:23;16.93;;;12.97;;
20623;SDS011;10471;42.736;23.346;2023-06-22T00:06:48;14.77;;;12.30;;
20623;SDS011;10471;42.736;23.346;2023-06-22T00:09:13;17.83;;;12.93;;
20623;SDS011;10471;42.736;23.346;2023-06-22T00:11:39;16.67;;;12.83;;
20623;SDS011;10471;42.736;23.346;2023-06-22T00:14:04;14.47;;;12.90;;
20623;SDS011;10471;42.736;23.346;2023-06-22T00:16:31;18.90;;;13.17;;
20623;SDS011;10471;42.736;23.346;2023-06-22T00:18:57;15.77;;;12.47;;
20623;SDS011;10471;42.736;23.346;2023-06-22T00:21:26;15.30;;;12.77;;
20623;SDS011;10471;42.736;23.346;2023-06-22T00:23:52;15.50;;;12.57;;
20623;SDS011;10471;42.736;23.346;2023-06-22T00:26:17;17.87;;;12.83;;
20623;SDS011;10471;42.736;23.346;2023-06-22T00:28:42;16.10;;;12.77;;
20623;SDS011;10471;42.736;23.346;2023-06-22T00:31:08;17.43;;;13.40;;
20623;SDS011;10471;42.736;23.346;2023-06-22T00:33:33;14.93;;;12.17;;
20623;SDS011;10471;42.736;23.346;2023-06-22T00:35:59;16.40;;;13.13;;
20623;SDS011;10471;42.736;23.346;2023-06-22T00:38:24;15.77;;;12.63;;
20623;SDS011;10471;42.736;23.346;2023-06-22T00:40:49;17.77;;;13.30;;
20623;SDS011;10471;42.736;23.346;2023-06-22T00:43:15;17.53;;;13.10;;
20623;SDS011;10471;42.736;23.346;2023-06-22T00:45:40;20.00;;;14.77;;
20623;SDS011;10471;42.736;23.346;2023-06-22T00:48:06;19.23;;;14.77;;
20623;SDS011;10471;42.736;23.346;2023-06-22T00:50:33;18.10;;;14.20;;
20623;SDS011;10471;42.736;23.346;2023-06-22T00:53:00;21.47;;;14.33;;
20623;SDS011;10471;42.736;23.346;2023-06-22T00:55:38;19.20;;;14.57;;
20623;SDS011;10471;42.736;23.346;2023-06-22T00:58:12;16.30;;;13.60;;
20623;SDS011;10471;42.736;23.346;2023-06-22T01:00:38;18.13;;;13.97;;
20623;SDS011;10471;42.736;23.346;2023-06-22T01:03:05;18.03;;;13.57;;
20623;SDS011;10471;42.736;23.346;2023-06-22T01:05:34;15.53;;;12.93;;
20623;SDS011;10471;42.736;23.346;2023-06-22T01:10:51;18.73;;;14.60;;
20623;SDS011;10471;42.736;23.346;2023-06-22T01:13:26;17.50;;;13.93;;
20623;SDS011;10471;42.736;23.346;2023-06-22T01:16:19;20.00;;;13.67;;
20623;SDS011;10471;42.736;23.346;2023-06-22T01:18:49;15.57;;;13.70;;
20623;SDS011;10471;42.736;23.346;2023-06-22T01:21:17;17.53;;;14.00;;
20623;SDS011;10471;42.736;23.346;2023-06-22T01:26:18;18.57;;;14.20;;
20623;SDS011;10471;42.736;23.346;2023-06-22T01:28:50;17.87;;;14.97;;
20623;SDS011;10471;42.736;23.346;2023-06-22T01:31:20;17.93;;;14.07;;
20623;SDS011;10471;42.736;23.346;2023-06-22T01:33:55;20.93;;;14.20;;
20623;SDS011;10471;42.736;23.346;2023-06-22T01:36:24;19.47;;;14.90;;
20623;SDS011;10471;42.736;23.346;2023-06-22T01:38:51;18.83;;;15.27;;
20623;SDS011;10471;42.736;23.346;2023-06-22T01:41:17;21.77;;;15.70;;
20623;SDS011;10471;42.736;23.346;2023-06-22T01:43:44;22.20;;;16.20;;
20623;SDS011;10471;42.736;23.346;2023-06-22T01:46:10;19.57;;;15.53;;
20623;SDS011;10471;42.736;23.346;2023-06-22T01:48:37;18.63;;;15.07;;
20623;SDS011;10471;42.736;23.346;2023-06-22T01:51:04;19.17;;;15.90;;
20623;SDS011;10471;42.736;23.346;2023-06-22T01:53:29;19.87;;;15.33;;
20623;SDS011;10471;42.736;23.346;2023-06-22T01:55:55;17.90;;;14.73;;
20623;SDS011;10471;42.736;23.346;2023-06-22T01:58:23;20.13;;;15.23;;
20623;SDS011;10471;42.736;23.346;2023-06-22T02:01:00;20.30;;;14.80;;
20623;SDS011;10471;42.736;23.346;2023-06-22T02:03:38;19.90;;;14.27;;
20623;SDS011;10471;42.736;23.346;2023-06-22T02:06:15;16.77;;;13.60;;
20623;SDS011;10471;42.736;23.346;2023-06-22T02:08:47;17.73;;;13.10;;
20623;SDS011;10471;42.736;23.346;2023-06-22T02:11:20;17.43;;;13.67;;
20623;SDS011;10471;42.736;23.346;2023-06-22T02:13:47;17.80;;;13.37;;
20623;SDS011;10471;42.736;23.346;2023-06-22T02:16:13;16.27;;;13.43;;
20623;SDS011;10471;42.736;23.346;2023-06-22T02:18:50;18.07;;;12.93;;
20623;SDS011;10471;42.736;23.346;2023-06-22T02:21:19;17.37;;;12.77;;
20623;SDS011;10471;42.736;23.346;2023-06-22T02:23:45;15.10;;;13.50;;
20623;SDS011;10471;42.736;23.346;2023-06-22T02:26:11;17.53;;;13.80;;
20623;SDS011;10471;42.736;23.346;2023-06-22T02:28:37;16.73;;;13.40;;
20623;SDS011;10471;42.736;23.346;2023-06-22T02:31:03;20.03;;;13.93;;
20623;SDS011;10471;42.736;23.346;2023-06-22T02:33:28;19.43;;;13.83;;
20623;SDS011;10471;42.736;23.346;2023-06-22T02:35:54;16.90;;;13.83;;
20623;SDS011;10471;42.736;23.346;2023-06-22T02:38:19;20.60;;;14.10;;
20623;SDS011;10471;42.736;23.346;2023-06-22T02:40:45;17.03;;;14.10;;
20623;SDS011;10471;42.736;23.346;2023-06-22T02:43:11;17.70;;;14.83;;
20623;SDS011;10471;42.736;23.346;2023-06-22T02:45:36;18.93;;;14.20;;
20623;SDS011;10471;42.736;23.346;2023-06-22T02:48:02;19.60;;;15.37;;
20623;SDS011;10471;42.736;23.346;2023-06-22T02:50:27;21.27;;;15.00;;
20623;SDS011;10471;42.736;23.346;2023-06-22T02:52:53;18.23;;;14.23;;
20623;SDS011;10471;42.736;23.346;2023-06-22T02:55:18;19.57;;;15.40;;
20623;SDS011;10471;42.736;23.346;2023-06-22T02:57:44;20.83;;;14.77;;
20623;SDS011;10471;42.736;23.346;2023-06-22T03:00:11;19.73;;;15.30;;
20623;SDS011;10471;42.736;23.346;2023-06-22T03:02:45;18.07;;;14.50;;
20623;SDS011;10471;42.736;23.346;2023-06-22T03:05:13;18.37;;;14.50;;
20623;SDS011;10471;42.736;23.346;2023-06-22T03:07:42;16.87;;;14.23;;
20623;SDS011;10471;42.736;23.346;2023-06-22T03:10:12;21.10;;;15.23;;
20623;SDS011;10471;42.736;23.346;2023-06-22T03:12:38;22.03;;;15.43;;
20623;SDS011;10471;42.736;23.346;2023-06-22T03:15:07;20.20;;;15.03;;
20623;SDS011;10471;42.736;23.346;2023-06-22T03:17:38;17.50;;;14.63;;
20623;SDS011;10471;42.736;23.346;2023-06-22T03:20:04;17.77;;;15.07;;
20623;SDS011;10471;42.736;23.346;2023-06-22T03:22:39;20.87;;;15.07;;
20623;SDS011;10471;42.736;23.346;2023-06-22T03:25:06;18.63;;;14.70;;
20623;SDS011;10471;42.736;23.346;2023-06-22T03:27:38;17.73;;;14.30;;
20623;SDS011;10471;42.736;23.346;2023-06-22T03:30:05;19.30;;;14.13;;
20623;SDS011;10471;42.736;23.346;2023-06-22T03:32:32;18.17;;;13.97;;
20623;SDS011;10471;42.736;23.346;2023-06-22T03:34:57;18.87;;;14.37;;
20623;SDS011;10471;42.736;23.346;2023-06-22T03:37:27;18.80;;;13.80;;
20623;SDS011;10471;42.736;23.346;2023-06-22T03:39:52;16.80;;;13.13;;
20623;SDS011;10471;42.736;23.346;2023-06-22T03:42:18;16.03;;;13.67;;
20623;SDS011;10471;42.736;23.346;2023-06-22T03:44:44;15.43;;;13.40;;
20623;SDS011;10471;42.736;23.346;2023-06-22T03:47:09;20.13;;;13.53;;
20623;SDS011;10471;42.736;23.346;2023-06-22T03:49:35;18.53;;;14.03;;
20623;SDS011;10471;42.736;23.346;2023-06-22T03:52:01;19.27;;;13.50;;
20623;SDS011;10471;42.736;23.346;2023-06-22T03:54:28;17.00;;;14.33;;
20623;SDS011;10471;42.736;23.346;2023-06-22T03:56:53;16.93;;;14.20;;
20623;SDS011;10471;42.736;23.346;2023-06-22T03:59:19;18.93;;;14.77;;
20623;SDS011;10471;42.736;23.346;2023-06-22T04:01:44;17.47;;;14.03;;
20623;SDS011;10471;42.736;23.346;2023-06-22T04:04:10;20.57;;;14.27;;
20623;SDS011;10471;42.736;23.346;2023-06-22T04:06:35;17.33;;;14.57;;
20623;SDS011;10471;42.736;23.346;2023-06-22T04:09:01;24.80;;;14.07;;
20623;SDS011;10471;42.736;23.346;2023-06-22T04:11:26;22.50;;;14.33;;
20623;SDS011;10471;42.736;23.346;2023-06-22T04:13:52;19.73;;;13.90;;
20623;SDS011;10471;42.736;23.346;2023-06-22T04:16:18;17.20;;;13.87;;
20623;SDS011;10471;42.736;23.346;2023-06-22T04:18:43;15.80;;;13.03;;
20623;SDS011;10471;42.736;23.346;2023-06-22T04:21:09;22.60;;;14.73;;
20623;SDS011;10471;42.736;23.346;2023-06-22T04:23:35;20.00;;;13.70;;
20623;SDS011;10471;42.736;23.346;2023-06-22T04:26:00;19.07;;;14.13;;
20623;SDS011;10471;42.736;23.346;2023-06-22T04:28:26;25.67;;;13.37;;
20623;SDS011;10471;42.736;23.346;2023-06-22T04:30:51;19.57;;;14.20;;
20623;SDS011;10471;42.736;23.346;2023-06-22T04:33:16;20.47;;;13.93;;
20623;SDS011;10471;42.736;23.346;2023-06-22T04:35:44;21.67;;;14.00;;
20623;SDS011;10471;42.736;23.346;2023-06-22T04:38:11;17.00;;;13.07;;
20623;SDS011;10471;42.736;23.346;2023-06-22T04:40:38;18.37;;;14.00;;
20623;SDS011;10471;42.736;23.346;2023-06-22T04:43:04;23.70;;;15.27;;
20623;SDS011;10471;42.736;23.346;2023-06-22T04:45:31;16.70;;;13.13;;
20623;SDS011;10471;42.736;23.346;2023-06-22T04:47:57;17.73;;;14.30;;
20623;SDS011;10471;42.736;23.346;2023-06-22T04:50:23;24.30;;;14.13;;
20623;SDS011;10471;42.736;23.346;2023-06-22T04:52:49;20.03;;;14.07;;
20623;SDS011;10471;42.736;23.346;2023-06-22T04:55:15;17.60;;;13.53;;
20623;SDS011;10471;42.736;23.346;2023-06-22T04:57:48;17.30;;;12.97;;
20623;SDS011;10471;42.736;23.346;2023-06-22T05:00:22;21.57;;;13.60;;
20623;SDS011;10471;42.736;23.346;2023-06-22T05:02:48;17.23;;;13.93;;
20623;SDS011;10471;42.736;23.346;2023-06-22T05:05:14;22.00;;;14.30;;
20623;SDS011;10471;42.736;23.346;2023-06-22T05:07:43;17.83;;;14.03;;
20623;SDS011;10471;42.736;23.346;2023-06-22T05:10:10;17.73;;;14.63;;
20623;SDS011;10471;42.736;23.346;2023-06-22T05:12:37;18.83;;;15.27;;
20623;SDS011;10471;42.736;23.346;2023-06-22T05:15:03;18.07;;;13.60;;
20623;SDS011;10471;42.736;23.346;2023-06-22T05:17:29;18.17;;;14.97;;
20623;SDS011;10471;42.736;23.346;2023-06-22T05:19:54;20.70;;;15.10;;
20623;SDS011;10471;42.736;23.346;2023-06-22T05:22:20;23.20;;;15.33;;
20623;SDS011;10471;42.736;23.346;2023-06-22T05:24:46;24.43;;;16.53;;
20623;SDS011;10471;42.736;23.346;2023-06-22T05:27:11;21.20;;;17.03;;
20623;SDS011;10471;42.736;23.346;2023-06-22T05:29:37;24.00;;;18.87;;
20623;SDS011;10471;42.736;23.346;2023-06-22T05:32:03;19.40;;;15.57;;
20623;SDS011;10471;42.736;23.346;2023-06-22T05:34:28;18.00;;;14.70;;
20623;SDS011;10471;42.736;23.346;2023-06-22T05:36:54;21.37;;;16.43;;
20623;SDS011;10471;42.736;23.346;2023-06-22T05:39:19;20.33;;;16.40;;
20623;SDS011;10471;42.736;23.346;2023-06-22T05:41:45;25.57;;;17.70;;
20623;SDS011;10471;42.736;23.346;2023-06-22T05:44:11;29.67;;;19.00;;
20623;SDS011;10471;42.736;23.346;2023-06-22T05:46:39;24.37;;;18.97;;
20623;SDS011;10471;42.736;23.346;2023-06-22T05:49:09;20.37;;;18.17;;
20623;SDS011;10471;42.736;23.346;2023-06-22T05:51:35;24.33;;;18.40;;
20623;SDS011;10471;42.736;23.346;2023-06-22T05:54:00;20.27;;;13.97;;
20623;SDS011;10471;42.736;23.346;2023-06-22T05:56:25;17.13;;;13.57;;
20623;SDS011;10471;42.736;23.346;2023-06-22T05:58:51;15.23;;;13.63;;
20623;SDS011;10471;42.736;23.346;2023-06-22T06:01:16;16.93;;;14.27;;
20623;SDS011;10471;42.736;23.346;2023-06-22T06:03:42;22.57;;;15.17;;
20623;SDS011;10471;42.736;23.346;2023-06-22T06:06:07;20.13;;;14.23;;
20623;SDS011;10471;42.736;23.346;2023-06-22T06:08:33;16.07;;;13.63;;
20623;SDS011;10471;42.736;23.346;2023-06-22T06:10:58;15.17;;;13.23;;
20623;SDS011;10471;42.736;23.346;2023-06-22T06:13:24;17.07;;;13.70;;
20623;SDS011;10471;42.736;23.346;2023-06-22T06:15:49;17.93;;;14.03;;
20623;SDS011;10471;42.736;23.346;2023-06-22T06:18:16;18.03;;;13.67;;
20623;SDS011;10471;42.736;23.346;2023-06-22T06:20:42;17.33;;;13.60;;
20623;SDS011;10471;42.736;23.346;2023-06-22T06:23:07;15.60;;;13.37;;
20623;SDS011;10471;42.736;23.346;2023-06-22T06:25:32;19.43;;;14.10;;
20623;SDS011;10471;42.736;23.346;2023-06-22T06:27:58;18.53;;;14.07;;
20623;SDS011;10471;42.736;23.346;2023-06-22T06:30:23;15.07;;;13.53;;
20623;SDS011;10471;42.736;23.346;2023-06-22T06:32:49;17.00;;;13.27;;
20623;SDS011;10471;42.736;23.346;2023-06-22T06:35:15;19.10;;;13.30;;
20623;SDS011;10471;42.736;23.346;2023-06-22T06:37:42;17.27;;;13.57;;
20623;SDS011;10471;42.736;23.346;2023-06-22T06:40:10;15.83;;;13.57;;
20623;SDS011;10471;42.736;23.346;2023-06-22T06:42:40;15.93;;;13.03;;
20623;SDS011;10471;42.736;23.346;2023-06-22T06:45:09;14.87;;;12.97;;
20623;SDS011;10471;42.736;23.346;2023-06-22T06:47:45;17.43;;;13.43;;
20623;SDS011;10471;42.736;23.346;2023-06-22T06:50:11;17.27;;;13.17;;
20623;SDS011;10471;42.736;23.346;2023-06-22T06:52:37;18.60;;;13.47;;
20623;SDS011;10471;42.736;23.346;2023-06-22T06:55:03;18.80;;;14.07;;
20623;SDS011;10471;42.736;23.346;2023-06-22T06:57:35;18.50;;;12.43;;
20623;SDS011;10471;42.736;23.346;2023-06-22T07:00:02;18.00;;;13.10;;
20623;SDS011;10471;42.736;23.346;2023-06-22T07:02:34;17.90;;;13.37;;
20623;SDS011;10471;42.736;23.346;2023-06-22T07:04:59;17.43;;;13.07;;
20623;SDS011;10471;42.736;23.346;2023-06-22T07:07:25;15.17;;;13.37;;
20623;SDS011;10471;42.736;23.346;2023-06-22T07:09:50;15.67;;;13.80;;
20623;SDS011;10471;42.736;23.346;2023-06-22T07:12:16;17.47;;;13.50;;
20623;SDS011;10471;42.736;23.346;2023-06-22T07:14:41;18.23;;;13.90;;
20623;SDS011;10471;42.736;23.346;2023-06-22T07:17:06;17.00;;;13.40;;
20623;SDS011;10471;42.736;23.346;2023-06-22T07:19:32;20.33;;;13.87;;
20623;SDS011;10471;42.736;23.346;2023-06-22T07:21:57;18.87;;;13.57;;
20623;SDS011;10471;42.736;23.346;2023-06-22T07:24:23;20.47;;;14.23;;
20623;SDS011;10471;42.736;23.346;2023-06-22T07:26:49;18.07;;;12.47;;
20623;SDS011;10471;42.736;23.346;2023-06-22T07:29:19;17.57;;;12.20;;
20623;SDS011;10471;42.736;23.346;2023-06-22T07:31:46;17.03;;;13.60;;
20623;SDS011;10471;42.736;23.346;2023-06-22T07:34:12;17.87;;;13.23;;
20623;SDS011;10471;42.736;23.346;2023-06-22T07:36:38;20.10;;;13.00;;
20623;SDS011;10471;42.736;23.346;2023-06-22T07:39:03;16.97;;;13.90;;
20623;SDS011;10471;42.736;23.346;2023-06-22T07:41:29;17.07;;;13.20;;
20623;SDS011;10471;42.736;23.346;2023-06-22T07:43:55;17.33;;;13.77;;
20623;SDS011;10471;42.736;23.346;2023-06-22T07:46:20;18.40;;;13.47;;
20623;SDS011;10471;42.736;23.346;2023-06-22T07:48:46;14.47;;;12.03;;
20623;SDS011;10471;42.736;23.346;2023-06-22T07:51:11;18.30;;;12.10;;
20623;SDS011;10471;42.736;23.346;2023-06-22T07:53:43;14.90;;;11.53;;
20623;SDS011;10471;42.736;23.346;2023-06-22T07:56:12;16.80;;;13.50;;
20623;SDS011;10471;42.736;23.346;2023-06-22T07:58:38;18.63;;;12.80;;
20623;SDS011;10471;42.736;23.346;2023-06-22T08:01:04;14.37;;;11.83;;
20623;SDS011;10471;42.736;23.346;2023-06-22T08:03:29;17.33;;;12.67;;
20623;SDS011;10471;42.736;23.346;2023-06-22T08:05:55;20.97;;;12.40;;
20623;SDS011;10471;42.736;23.346;2023-06-22T08:08:21;18.77;;;13.13;;
20623;SDS011;10471;42.736;23.346;2023-06-22T08:10:46;17.20;;;11.97;;
20623;SDS011;10471;42.736;23.346;2023-06-22T08:13:11;18.07;;;12.03;;
20623;SDS011;10471;42.736;23.346;2023-06-22T08:15:37;15.97;;;12.40;;
20623;SDS011;10471;42.736;23.346;2023-06-22T08:18:02;16.30;;;12.00;;
20623;SDS011;10471;42.736;23.346;2023-06-22T08:20:28;16.73;;;12.10;;
20623;SDS011;10471;42.736;23.346;2023-06-22T08:22:54;17.17;;;12.23;;
20623;SDS011;10471;42.736;23.346;2023-06-22T08:25:21;15.23;;;12.20;;
20623;SDS011;10471;42.736;23.346;2023-06-22T08:27:46;16.53;;;12.90;;
20623;SDS011;10471;42.736;23.346;2023-06-22T08:30:15;22.30;;;13.67;;
20623;SDS011;10471;42.736;23.346;2023-06-22T08:32:42;15.17;;;12.67;;
20623;SDS011;10471;42.736;23.346;2023-06-22T08:35:08;20.30;;;13.20;;
20623;SDS011;10471;42.736;23.346;2023-06-22T08:37:34;16.20;;;12.63;;
20623;SDS011;10471;42.736;23.346;2023-06-22T08:40:01;15.50;;;12.30;;
20623;SDS011;10471;42.736;23.346;2023-06-22T08:42:32;17.30;;;12.70;;
20623;SDS011;10471;42.736;23.346;2023-06-22T08:44:58;14.40;;;11.67;;
20623;SDS011;10471;42.736;23.346;2023-06-22T08:47:23;14.73;;;11.93;;
20623;SDS011;10471;42.736;23.346;2023-06-22T08:49:49;17.87;;;12.67;;
20623;SDS011;10471;42.736;23.346;2023-06-22T08:52:14;13.13;;;11.60;;
20623;SDS011;10471;42.736;23.346;2023-06-22T08:54:40;16.83;;;12.47;;
20623;SDS011;10471;42.736;23.346;2023-06-22T08:57:05;19.03;;;11.93;;
20623;SDS011;10471;42.736;23.346;2023-06-22T08:59:31;17.97;;;12.00;;
20623;SDS011;10471;42.736;23.346;2023-06-22T09:01:56;18.70;;;11.63;;
20623;SDS011;10471;42.736;23.346;2023-06-22T09:04:22;14.83;;;11.73;;
20623;SDS011;10471;42.736;23.346;2023-06-22T09:06:47;15.37;;;12.57;;
20623;SDS011;10471;42.736;23.346;2023-06-22T09:09:15;17.17;;;12.37;;
20623;SDS011;10471;42.736;23.346;2023-06-22T09:11:41;18.67;;;11.87;;
20623;SDS011;10471;42.736;23.346;2023-06-22T09:14:06;13.70;;;11.93;;
20623;SDS011;10471;42.736;23.346;2023-06-22T09:16:32;15.30;;;11.63;;
20623;SDS011;10471;42.736;23.346;2023-06-22T09:18:57;15.50;;;11.00;;
20623;SDS011;10471;42.736;23.346;2023-06-22T09:21:23;18.93;;;12.83;;
20623;SDS011;10471;42.736;23.346;2023-06-22T09:23:48;19.13;;;12.37;;
20623;SDS011;10471;42.736;23.346;2023-06-22T09:26:16;13.57;;;12.17;;
20623;SDS011;10471;42.736;23.346;2023-06-22T09:28:42;17.17;;;12.13;;
20623;SDS011;10471;42.736;23.346;2023-06-22T09:31:07;17.03;;;11.67;;
20623;SDS011;10471;42.736;23.346;2023-06-22T09:33:33;13.10;;;11.67;;
20623;SDS011;10471;42.736;23.346;2023-06-22T09:35:58;12.73;;;11.43;;
20623;SDS011;10471;42.736;23.346;2023-06-22T09:38:24;12.90;;;11.33;;
20623;SDS011;10471;42.736;23.346;2023-06-22T09:40:49;14.30;;;11.70;;
20623;SDS011;10471;42.736;23.346;2023-06-22T09:43:14;16.33;;;11.87;;
20623;SDS011;10471;42.736;23.346;2023-06-22T09:45:40;14.07;;;11.20;;
20623;SDS011;10471;42.736;23.346;2023-06-22T09:48:05;11.87;;;10.63;;
20623;SDS011;10471;42.736;23.346;2023-06-22T09:50:30;15.73;;;11.63;;
20623;SDS011;10471;42.736;23.346;2023-06-22T09:52:56;13.35;;;10.80;;
20623;SDS011;10471;42.736;23.346;2023-06-22T09:55:21;17.58;;;10.73;;
20623;SDS011;10471;42.736;23.346;2023-06-22T09:57:47;12.80;;;11.23;;
20623;SDS011;10471;42.736;23.346;2023-06-22T10:00:13;12.35;;;10.23;;
20623;SDS011;10471;42.736;23.346;2023-06-22T10:02:43;13.18;;;10.07;;
20623;SDS011;10471;42.736;23.346;2023-06-22T10:05:08;11.82;;;10.50;;
20623;SDS011;10471;42.736;23.346;2023-06-22T10:07:34;10.85;;;9.82;;
20623;SDS011;10471;42.736;23.346;2023-06-22T10:09:59;11.68;;;10.13;;
20623;SDS011;10471;42.736;23.346;2023-06-22T10:12:26;13.00;;;9.87;;
20623;SDS011;10471;42.736;23.346;2023-06-22T10:14:52;10.98;;;9.88;;
20623;SDS011;10471;42.736;23.346;2023-06-22T10:17:18;12.15;;;10.50;;
20623;SDS011;10471;42.736;23.346;2023-06-22T10:19:43;13.15;;;10.20;;
20623;SDS011;10471;42.736;23.346;2023-06-22T10:22:08;11.35;;;9.68;;
20623;SDS011;10471;42.736;23.346;2023-06-22T10:24:34;13.20;;;10.93;;
20623;SDS011;10471;42.736;23.346;2023-06-22T10:26:59;14.33;;;10.70;;
20623;SDS011;10471;42.736;23.346;2023-06-22T10:29:24;13.07;;;10.68;;
20623;SDS011;10471;42.736;23.346;2023-06-22T10:31:50;11.73;;;10.53;;
20623;SDS011;10471;42.736;23.346;2023-06-22T10:34:15;11.53;;;9.73;;
20623;SDS011;10471;42.736;23.346;2023-06-22T10:36:41;11.40;;;10.13;;
20623;SDS011;10471;42.736;23.346;2023-06-22T10:39:06;11.33;;;10.23;;
20623;SDS011;10471;42.736;23.346;2023-06-22T10:41:31;11.03;;;9.87;;
20623;SDS011;10471;42.736;23.346;2023-06-22T10:43:57;11.07;;;9.97;;
20623;SDS011;10471;42.736;23.346;2023-06-22T10:46:26;10.80;;;9.70;;
20623;SDS011;10471;42.736;23.346;2023-06-22T10:48:52;11.10;;;10.00;;
20623;SDS011;10471;42.736;23.346;2023-06-22T10:51:20;15.20;;;10.05;;
20623;SDS011;10471;42.736;23.346;2023-06-22T10:53:45;11.52;;;9.88;;
20623;SDS011;10471;42.736;23.346;2023-06-22T10:56:11;10.80;;;9.85;;
20623;SDS011;10471;42.736;23.346;2023-06-22T10:58:36;10.77;;;9.68;;
20623;SDS011;10471;42.736;23.346;2023-06-22T11:01:01;10.48;;;9.38;;
20623;SDS011;10471;42.736;23.346;2023-06-22T11:03:28;11.00;;;9.15;;
20623;SDS011;10471;42.736;23.346;2023-06-22T11:05:53;10.45;;;9.45;;
20623;SDS011;10471;42.736;23.346;2023-06-22T11:08:19;9.88;;;8.98;;
20623;SDS011;10471;42.736;23.346;2023-06-22T11:10:44;10.27;;;9.23;;
20623;SDS011;10471;42.736;23.346;2023-06-22T11:13:10;10.50;;;9.40;;
20623;SDS011;10471;42.736;23.346;2023-06-22T11:15:35;10.68;;;9.68;;
20623;SDS011;10471;42.736;23.346;2023-06-22T11:18:01;9.80;;;8.80;;
20623;SDS011;10471;42.736;23.346;2023-06-22T11:20:26;9.25;;;8.45;;
20623;SDS011;10471;42.736;23.346;2023-06-22T11:22:52;9.50;;;8.70;;
20623;SDS011;10471;42.736;23.346;2023-06-22T11:25:17;9.27;;;8.45;;
20623;SDS011;10471;42.736;23.346;2023-06-22T11:27:43;9.23;;;8.32;;
20623;SDS011;10471;42.736;23.346;2023-06-22T11:30:08;10.60;;;8.93;;
20623;SDS011;10471;42.736;23.346;2023-06-22T11:32:34;9.18;;;8.30;;
20623;SDS011;10471;42.736;23.346;2023-06-22T11:35:00;9.57;;;8.65;;
20623;SDS011;10471;42.736;23.346;2023-06-22T11:37:25;9.57;;;8.68;;
20623;SDS011;10471;42.736;23.346;2023-06-22T11:39:51;9.65;;;8.75;;
20623;SDS011;10471;42.736;23.346;2023-06-22T11:42:16;10.40;;;9.40;;
20623;SDS011;10471;42.736;23.346;2023-06-22T11:44:42;9.50;;;8.50;;
20623;SDS011;10471;42.736;23.346;2023-06-22T11:47:09;9.50;;;8.60;;
20623;SDS011;10471;42.736;23.346;2023-06-22T11:49:34;9.45;;;8.55;;
20623;SDS011;10471;42.736;23.346;2023-06-22T11:51:59;11.68;;;9.50;;
20623;SDS011;10471;42.736;23.346;2023-06-22T11:54:25;9.40;;;8.52;;
20623;SDS011;10471;42.736;23.346;2023-06-22T11:56:50;9.63;;;8.70;;
20623;SDS011;10471;42.736;23.346;2023-06-22T11:59:16;11.90;;;9.25;;
20623;SDS011;10471;42.736;23.346;2023-06-22T12:01:41;10.82;;;9.23;;
20623;SDS011;10471;42.736;23.346;2023-06-22T12:04:06;10.93;;;9.13;;
20623;SDS011;10471;42.736;23.346;2023-06-22T12:06:32;10.30;;;9.40;;
20623;SDS011;10471;42.736;23.346;2023-06-22T12:08:58;11.10;;;9.02;;
20623;SDS011;10471;42.736;23.346;2023-06-22T12:11:23;9.82;;;8.95;;
20623;SDS011;10471;42.736;23.346;2023-06-22T12:13:49;11.63;;;9.45;;
20623;SDS011;10471;42.736;23.346;2023-06-22T12:16:14;13.18;;;9.48;;
20623;SDS011;10471;42.736;23.346;2023-06-22T12:18:40;12.77;;;9.73;;
20623;SDS011;10471;42.736;23.346;2023-06-22T12:21:05;11.15;;;9.57;;
20623;SDS011;10471;42.736;23.346;2023-06-22T12:23:30;11.25;;;10.02;;
20623;SDS011;10471;42.736;23.346;2023-06-22T12:25:56;11.40;;;10.20;;
20623;SDS011;10471;42.736;23.346;2023-06-22T12:28:21;14.47;;;11.00;;
20623;SDS011;10471;42.736;23.346;2023-06-22T12:30:48;18.63;;;10.20;;
20623;SDS011;10471;42.736;23.346;2023-06-22T12:33:13;24.40;;;10.80;;
20623;SDS011;10471;42.736;23.346;2023-06-22T12:35:39;16.43;;;9.60;;
20623;SDS011;10471;42.736;23.346;2023-06-22T12:38:04;14.07;;;9.23;;
20623;SDS011;10471;42.736;23.346;2023-06-22T12:40:31;14.10;;;9.80;;
20623;SDS011;10471;42.736;23.346;2023-06-22T12:42:58;13.37;;;8.47;;
20623;SDS011;10471;42.736;23.346;2023-06-22T12:45:23;10.30;;;8.10;;
20623;SDS011;10471;42.736;23.346;2023-06-22T12:47:49;12.77;;;8.70;;
20623;SDS011;10471;42.736;23.346;2023-06-22T12:50:15;14.17;;;8.20;;
20623;SDS011;10471;42.736;23.346;2023-06-22T12:52:40;15.50;;;8.03;;
20623;SDS011;10471;42.736;23.346;2023-06-22T12:55:06;12.80;;;8.03;;
20623;SDS011;10471;42.736;23.346;2023-06-22T12:57:32;12.83;;;7.63;;
20623;SDS011;10471;42.736;23.346;2023-06-22T12:59:57;11.10;;;7.53;;
20623;SDS011;10471;42.736;23.346;2023-06-22T13:02:25;14.80;;;8.00;;
20623;SDS011;10471;42.736;23.346;2023-06-22T13:04:50;13.57;;;7.47;;
20623;SDS011;10471;42.736;23.346;2023-06-22T13:07:16;14.00;;;7.27;;
20623;SDS011;10471;42.736;23.346;2023-06-22T13:09:41;13.40;;;7.40;;
20623;SDS011;10471;42.736;23.346;2023-06-22T13:12:07;11.13;;;7.17;;
20623;SDS011;10471;42.736;23.346;2023-06-22T13:14:32;11.00;;;7.07;;
20623;SDS011;10471;42.736;23.346;2023-06-22T13:16:58;9.57;;;6.53;;
20623;SDS011;10471;42.736;23.346;2023-06-22T13:19:23;12.27;;;7.80;;
20623;SDS011;10471;42.736;23.346;2023-06-22T13:21:49;14.30;;;7.83;;
20623;SDS011;10471;42.736;23.346;2023-06-22T13:24:14;14.63;;;7.67;;
20623;SDS011;10471;42.736;23.346;2023-06-22T13:26:41;14.17;;;7.97;;
20623;SDS011;10471;42.736;23.346;2023-06-22T13:29:06;10.83;;;7.87;;
20623;SDS011;10471;42.736;23.346;2023-06-22T13:31:32;11.90;;;7.70;;
20623;SDS011;10471;42.736;23.346;2023-06-22T13:33:57;10.90;;;7.40;;
20623;SDS011;10471;42.736;23.346;2023-06-22T13:36:23;12.70;;;7.93;;
20623;SDS011;10471;42.736;23.346;2023-06-22T13:38:48;13.53;;;7.53;;
20623;SDS011;10471;42.736;23.346;2023-06-22T13:41:14;13.10;;;7.67;;
20623;SDS011;10471;42.736;23.346;2023-06-22T13:43:39;20.10;;;8.83;;
20623;SDS011;10471;42.736;23.346;2023-06-22T13:46:05;10.83;;;7.93;;
20623;SDS011;10471;42.736;23.346;2023-06-22T13:48:30;12.53;;;8.53;;
20623;SDS011;10471;42.736;23.346;2023-06-22T13:50:55;10.93;;;7.80;;
20623;SDS011;10471;42.736;23.346;2023-06-22T13:53:22;11.87;;;8.77;;
20623;SDS011;10471;42.736;23.346;2023-06-22T13:55:49;12.00;;;8.50;;
20623;SDS011;10471;42.736;23.346;2023-06-22T13:58:15;12.70;;;8.70;;
20623;SDS011;10471;42.736;23.346;2023-06-22T14:00:40;13.53;;;8.60;;
20623;SDS011;10471;42.736;23.346;2023-06-22T14:03:06;12.03;;;8.67;;
20623;SDS011;10471;42.736;23.346;2023-06-22T14:05:31;29.07;;;14.40;;
20623;SDS011;10471;42.736;23.346;2023-06-22T14:07:56;18.60;;;9.70;;
20623;SDS011;10471;42.736;23.346;2023-06-22T14:10:22;10.30;;;8.30;;
20623;SDS011;10471;42.736;23.346;2023-06-22T14:12:47;13.43;;;8.70;;
20623;SDS011;10471;42.736;23.346;2023-06-22T14:15:13;12.20;;;8.40;;